Time;durP1;ratioP1;P1;durP2;ratioP2;P2;SDS_P1;SDS_P2;PMS_P1;PMS_P2;Temp;Humidity;BMP_temperature;BMP_pressure;BME280_temperature;BME280_humidity;BME280_pressure;Samples;Min_cycle;Max_cycle;Signal;HPM_P1;HPM_P2
2022/04/21 00:00:21;;;;;;;5.15;2.92;;;4.30;99.90;;;;;;5055344;28;20029;-82
2022/04/21 00:02:47;;;;;;;5.35;3.05;;;4.20;99.90;;;;;;5053403;28;20017;-82
2022/04/21 00:05:14;;;;;;;7.20;2.67;;;4.20;99.90;;;;;;5054396;28;20021;-81
2022/04/21 00:07:40;;;;;;;5.18;2.90;;;4.10;99.90;;;;;;5053377;28;20075;-82
2022/04/21 00:10:08;;;;;;;4.47;2.80;;;4.00;99.90;;;;;;5053303;28;20025;-82
2022/04/21 00:12:34;;;;;;;5.18;3.17;;;3.90;99.90;;;;;;5054586;28;20104;-82
2022/04/21 00:15:03;;;;;;;5.45;2.53;;;3.90;99.90;;;;;;5054448;28;20021;-81
2022/04/21 00:17:29;;;;;;;4.78;2.75;;;3.90;99.90;;;;;;5053142;28;20558;-81
2022/04/21 00:19:54;;;;;;;4.22;2.50;;;3.90;99.90;;;;;;5054221;28;20025;-81
2022/04/21 00:25:05;;;;;;;4.90;2.58;;;3.90;99.90;;;;;;5054442;28;20032;-81
2022/04/21 00:27:39;;;;;;;4.85;3.20;;;3.80;99.90;;;;;;5052838;28;20021;-81
2022/04/21 00:30:06;;;;;;;6.85;3.67;;;3.70;99.90;;;;;;5054183;28;20150;-81
2022/04/21 00:32:36;;;;;;;7.25;3.47;;;3.70;99.90;;;;;;5052869;28;20032;-81
2022/04/21 00:35:03;;;;;;;4.57;2.70;;;3.70;99.90;;;;;;5054237;28;20028;-81
2022/04/21 00:37:29;;;;;;;7.32;3.28;;;3.70;99.90;;;;;;5053901;28;20029;-82
2022/04/21 00:39:55;;;;;;;5.32;3.28;;;3.50;99.90;;;;;;5052611;28;20040;-82
2022/04/21 00:42:21;;;;;;;7.82;3.70;;;3.40;99.90;;;;;;5053999;28;20052;-82
2022/04/21 00:44:49;;;;;;;5.88;3.70;;;3.30;99.90;;;;;;5052640;28;20060;-81
2022/04/21 00:47:16;;;;;;;4.57;2.90;;;3.30;99.90;;;;;;5053955;28;20108;-81
2022/04/21 00:49:44;;;;;;;4.40;2.70;;;3.30;99.90;;;;;;5053602;28;20477;-81
2022/04/21 00:52:10;;;;;;;4.70;2.65;;;3.30;99.90;;;;;;5053871;28;20025;-82
2022/04/21 00:54:36;;;;;;;4.85;3.10;;;3.40;99.90;;;;;;5053919;28;20028;-81
2022/04/21 00:57:02;;;;;;;5.75;3.17;;;3.40;99.90;;;;;;5054298;28;20029;-82
2022/04/21 00:59:28;;;;;;;5.65;3.50;;;3.40;99.90;;;;;;5052627;28;20520;-82
2022/04/21 01:04:39;;;;;;;5.95;3.35;;;3.20;99.90;;;;;;5055056;28;20039;-82
2022/04/21 01:07:08;;;;;;;5.72;3.53;;;3.20;99.90;;;;;;5055962;28;20051;-82
2022/04/21 01:09:35;;;;;;;5.68;3.15;;;3.10;99.90;;;;;;5054814;28;20056;-82
2022/04/21 01:12:03;;;;;;;5.85;3.28;;;3.00;99.90;;;;;;5054134;28;20033;-82
2022/04/21 01:14:30;;;;;;;5.88;3.55;;;2.90;99.90;;;;;;5053493;28;20522;-82
2022/04/21 01:16:59;;;;;;;5.53;3.33;;;2.80;99.90;;;;;;5052515;28;20029;-82
2022/04/21 01:19:25;;;;;;;6.15;3.28;;;2.80;99.90;;;;;;5052030;28;20056;-82
2022/04/21 01:21:51;;;;;;;4.97;3.35;;;2.80;99.90;;;;;;5053239;28;20099;-82
2022/04/21 01:24:17;;;;;;;4.97;3.70;;;2.90;99.90;;;;;;5052008;28;20072;-82
2022/04/21 01:26:43;;;;;;;6.10;3.38;;;2.90;99.90;;;;;;5052097;28;20120;-82
2022/04/21 01:29:09;;;;;;;5.25;3.13;;;3.00;99.90;;;;;;5052113;28;20060;-82
2022/04/21 01:31:35;;;;;;;5.22;3.38;;;3.00;99.90;;;;;;5053309;28;20394;-82
2022/04/21 01:34:00;;;;;;;5.22;3.30;;;3.00;99.90;;;;;;5051864;28;20021;-81
2022/04/21 01:36:26;;;;;;;5.10;3.28;;;2.90;99.90;;;;;;5052958;28;20029;-82
2022/04/21 01:41:36;;;;;;;7.68;3.25;;;2.70;99.90;;;;;;5057153;28;20058;-82
2022/04/21 01:44:03;;;;;;;5.72;3.60;;;2.60;99.90;;;;;;5057293;28;20100;-81
2022/04/21 01:46:29;;;;;;;5.90;3.67;;;2.60;99.90;;;;;;5057599;28;20469;-81
2022/04/21 01:48:55;;;;;;;6.10;3.63;;;2.60;99.90;;;;;;5056057;28;20478;-82
2022/04/21 01:51:20;;;;;;;5.55;3.50;;;2.60;99.90;;;;;;5057056;28;20025;-81
2022/04/21 01:53:46;;;;;;;5.07;3.30;;;2.70;99.90;;;;;;5057096;28;20358;-82
2022/04/21 01:56:12;;;;;;;8.95;4.43;;;2.70;99.90;;;;;;5057086;28;20053;-81
2022/04/21 01:58:38;;;;;;;14.95;7.35;;;2.70;99.90;;;;;;5057275;28;20064;-82
2022/04/21 02:01:04;;;;;;;13.82;6.65;;;2.80;99.90;;;;;;5057026;28;20021;-82
2022/04/21 02:03:32;;;;;;;10.85;5.43;;;2.80;99.90;;;;;;5057592;28;20035;-82
2022/04/21 02:05:58;;;;;;;8.32;4.70;;;2.80;99.90;;;;;;5056641;28;20027;-81
2022/04/21 02:08:23;;;;;;;9.45;4.55;;;2.80;99.90;;;;;;5055644;28;20459;-82
2022/04/21 02:10:50;;;;;;;5.82;3.90;;;2.80;99.90;;;;;;5057107;28;20083;-82
2022/04/21 02:13:15;;;;;;;6.55;3.80;;;2.80;99.90;;;;;;5056881;28;20021;-82
2022/04/21 02:15:41;;;;;;;7.15;3.78;;;2.80;99.90;;;;;;5056739;28;20024;-81
2022/04/21 02:18:07;;;;;;;5.32;3.38;;;2.80;99.90;;;;;;5056719;28;20028;-81
2022/04/21 02:20:32;;;;;;;5.13;3.30;;;2.70;99.90;;;;;;5055165;28;20025;-81
2022/04/21 02:22:58;;;;;;;6.55;3.75;;;2.70;99.90;;;;;;5055334;28;20025;-82
2022/04/21 02:25:24;;;;;;;6.18;3.67;;;2.70;99.90;;;;;;5055350;28;20028;-81
2022/04/21 02:27:50;;;;;;;6.55;3.78;;;2.70;99.90;;;;;;5055310;28;20474;-82
2022/04/21 02:30:17;;;;;;;6.57;3.50;;;2.60;99.90;;;;;;5055277;28;20071;-82
2022/04/21 02:32:44;;;;;;;6.13;3.42;;;2.60;99.90;;;;;;5056807;28;20099;-81
2022/04/21 02:35:11;;;;;;;5.90;3.60;;;2.60;99.90;;;;;;5055014;28;20512;-81
2022/04/21 02:37:39;;;;;;;6.35;3.28;;;2.70;99.90;;;;;;5056203;28;20033;-81
2022/04/21 02:40:06;;;;;;;5.38;3.47;;;2.60;99.90;;;;;;5054925;28;20033;-82
2022/04/21 02:42:32;;;;;;;5.90;3.55;;;2.60;99.90;;;;;;5056321;28;20388;-82
2022/04/21 02:44:58;;;;;;;5.35;3.40;;;2.60;99.90;;;;;;5056146;28;20100;-81
2022/04/21 02:47:24;;;;;;;5.18;3.28;;;2.60;99.90;;;;;;5056204;28;20436;-81
2022/04/21 02:49:51;;;;;;;5.95;3.45;;;2.50;99.90;;;;;;5056691;28;20036;-81
2022/04/21 02:52:17;;;;;;;6.43;3.50;;;2.50;99.90;;;;;;5054976;28;20028;-81
2022/04/21 02:57:28;;;;;;;7.38;4.25;;;2.40;99.90;;;;;;5057052;28;20033;-82
2022/04/21 02:59:56;;;;;;;7.53;4.18;;;2.30;99.90;;;;;;5054675;28;20025;-82
2022/04/21 03:02:23;;;;;;;6.68;4.15;;;2.20;99.90;;;;;;5055814;28;20025;-82
2022/04/21 03:04:49;;;;;;;6.70;4.20;;;2.10;99.90;;;;;;5055047;28;20412;-81
2022/04/21 03:07:17;;;;;;;8.75;4.68;;;2.10;99.90;;;;;;5055616;28;20029;-82
2022/04/21 03:09:44;;;;;;;9.00;5.15;;;2.00;99.90;;;;;;5054653;28;20036;-82
2022/04/21 03:12:10;;;;;;;7.38;4.93;;;2.00;99.90;;;;;;5054767;28;20393;-82
2022/04/21 03:14:40;;;;;;;9.07;4.88;;;2.00;99.90;;;;;;5056253;28;20029;-81
2022/04/21 03:17:07;;;;;;;6.38;3.85;;;2.00;99.90;;;;;;5055655;28;20028;-82
2022/04/21 03:19:33;;;;;;;6.63;4.22;;;2.00;99.90;;;;;;5055426;28;20029;-82
2022/04/21 03:24:44;;;;;;;7.03;4.28;;;2.00;99.90;;;;;;5056287;28;20036;-82
2022/04/21 03:27:10;;;;;;;5.72;3.58;;;2.00;99.90;;;;;;5056375;28;20389;-82
2022/04/21 03:29:38;;;;;;;7.47;4.40;;;2.00;99.90;;;;;;5055469;28;20104;-82
2022/04/21 03:32:12;;;;;;;6.60;3.97;;;2.00;99.90;;;;;;5055343;28;20055;-82
2022/04/21 03:34:42;;;;;;;6.28;3.60;;;2.00;99.90;;;;;;5055435;28;20021;-81
2022/04/21 03:37:13;;;;;;;6.88;3.95;;;2.00;99.90;;;;;;5053735;28;20416;-81
2022/04/21 03:39:39;;;;;;;5.63;3.65;;;2.00;99.90;;;;;;5055314;28;20033;-82
2022/04/21 03:42:20;;;;;;;6.30;3.83;;;2.00;99.90;;;;;;5052788;28;20120;-81
2022/04/21 03:44:46;;;;;;;5.55;3.40;;;2.00;99.90;;;;;;5056834;28;20017;-82
2022/04/21 03:47:12;;;;;;;6.90;4.22;;;1.90;99.90;;;;;;5057156;28;20040;-81
2022/04/21 03:49:38;;;;;;;18.20;8.75;;;1.80;99.90;;;;;;5053802;28;20385;-81
2022/04/21 03:52:04;;;;;;;19.85;10.05;;;1.70;99.90;;;;;;5054788;28;20086;-81
2022/04/21 03:54:29;;;;;;;20.75;10.00;;;1.50;99.90;;;;;;5055012;28;20090;-81
2022/04/21 03:56:55;;;;;;;27.02;11.43;;;1.40;99.90;;;;;;5050247;28;20478;-80
2022/04/21 03:59:23;;;;;;;31.23;13.38;;;1.30;99.90;;;;;;5054722;28;20074;-81
2022/04/21 04:01:51;;;;;;;29.23;12.63;;;1.20;99.90;;;;;;5054843;28;20031;-81
2022/04/21 04:04:17;;;;;;;26.70;11.07;;;1.10;99.90;;;;;;5051651;28;20071;-81
2022/04/21 04:12:11;;;;;;;21.95;10.05;;;1.00;99.90;;;;;;5054533;28;20491;-81
2022/04/21 04:14:37;;;;;;;19.13;10.82;;;1.20;99.90;;;;;;5054225;28;20025;-81
2022/04/21 04:17:05;;;;;;;13.10;6.82;;;1.30;99.90;;;;;;5054245;28;20075;-81
2022/04/21 04:19:31;;;;;;;10.88;6.05;;;1.40;99.90;;;;;;5054183;28;20025;-81
2022/04/21 04:21:57;;;;;;;9.43;5.85;;;1.40;99.90;;;;;;5055132;28;20056;-80
2022/04/21 04:24:24;;;;;;;10.63;4.75;;;1.50;99.90;;;;;;5054465;28;20024;-80
2022/04/21 04:26:49;;;;;;;7.57;4.50;;;1.60;99.90;;;;;;5053032;28;20428;-79
2022/04/21 04:29:22;;;;;;;6.78;4.55;;;1.60;99.90;;;;;;5053185;28;20025;-79
2022/04/21 04:31:49;;;;;;;7.15;4.43;;;1.70;99.90;;;;;;5054301;28;20021;-79
2022/04/21 04:34:15;;;;;;;6.82;4.25;;;1.70;99.90;;;;;;5054418;28;20474;-80
2022/04/21 04:36:41;;;;;;;8.65;5.25;;;1.70;99.90;;;;;;5054242;28;20040;-79
2022/04/21 04:39:07;;;;;;;11.05;6.70;;;1.70;99.90;;;;;;5053890;28;20374;-80
2022/04/21 04:44:17;;;;;;;14.25;5.80;;;1.60;99.90;;;;;;5053923;28;20159;-80
2022/04/21 04:46:43;;;;;;;10.55;6.20;;;1.70;99.90;;;;;;5052555;28;20115;-80
2022/04/21 04:49:10;;;;;;;11.23;5.82;;;1.70;99.90;;;;;;5052661;28;20029;-80
2022/04/21 04:51:40;;;;;;;12.07;6.57;;;1.70;99.90;;;;;;5052765;28;20048;-79
2022/04/21 04:54:06;;;;;;;9.90;5.97;;;1.80;99.90;;;;;;5053804;28;20024;-79
2022/04/21 04:56:33;;;;;;;10.43;5.80;;;1.80;99.90;;;;;;5054198;28;20408;-80
2022/04/21 04:58:59;;;;;;;11.13;6.80;;;1.90;99.90;;;;;;5053745;28;20024;-80
2022/04/21 05:01:32;;;;;;;;;;;1.90;99.90;;;;;;5053699;28;20393;-80
2022/04/21 05:04:05;;;;;;;;;;;2.00;99.90;;;;;;5051320;28;20331;-79
2022/04/21 05:06:34;;;;;;;;;;;2.00;99.90;;;;;;5052441;28;19958;-79
2022/04/21 05:08:59;;;;;;;;;;;2.00;99.90;;;;;;5052154;28;19912;-80
2022/04/21 05:11:25;;;;;;;;;;;2.10;99.90;;;;;;5051795;28;19904;-80
2022/04/21 05:13:51;;;;;;;;;;;2.10;99.90;;;;;;5051924;28;20353;-80
2022/04/21 05:16:17;;;;;;;;;;;2.20;99.90;;;;;;5051498;28;19954;-80
2022/04/21 05:18:42;;;;;;;;;;;2.20;99.90;;;;;;5053273;28;20039;-80
2022/04/21 05:21:08;;;;;;;18.20;10.20;;;2.30;99.90;;;;;;5053365;28;19992;-80
2022/04/21 05:23:35;;;;;;;;;;;2.30;99.90;;;;;;5053360;28;20525;-80
2022/04/21 05:26:01;;;;;;;;;;;2.30;99.90;;;;;;5053519;28;19909;-79
2022/04/21 05:28:27;;;;;;;;;;;2.40;99.90;;;;;;5054953;28;19905;-79
2022/04/21 05:30:55;;;;;;;;;;;2.30;99.90;;;;;;5054736;28;19905;-79
2022/04/21 05:33:25;;;;;;;;;;;2.30;99.90;;;;;;5053301;28;19905;-80
2022/04/21 05:35:51;;;;;;;;;;;2.30;99.90;;;;;;5054455;28;19954;-79
2022/04/21 05:38:16;;;;;;;;;;;2.30;99.90;;;;;;5055395;28;19908;-79
2022/04/21 05:40:42;;;;;;;;;;;2.30;99.90;;;;;;5054872;28;20007;-79
2022/04/21 05:43:10;;;;;;;;;;;2.30;99.90;;;;;;5054787;28;24113;-80
2022/04/21 05:45:36;;;;;;;;;;;2.30;99.90;;;;;;5054319;28;20316;-80
2022/04/21 05:48:02;;;;;;;;;;;2.30;99.90;;;;;;5054389;28;19947;-80
2022/04/21 05:50:28;;;;;;;;;;;2.40;99.90;;;;;;5054727;28;19904;-80
2022/04/21 05:52:55;;;;;;;;;;;2.50;99.90;;;;;;5054425;28;20375;-80
2022/04/21 05:55:21;;;;;;;;;;;2.60;99.90;;;;;;5053146;28;19947;-80
2022/04/21 05:57:46;;;;;;;;;;;2.60;99.90;;;;;;5054581;28;19956;-80
2022/04/21 06:00:12;;;;;;;;;;;2.70;99.90;;;;;;5054204;28;19982;-79
2022/04/21 06:02:38;;;;;;;;;;;2.80;99.90;;;;;;5054415;28;19904;-80
2022/04/21 06:05:04;;;;;;;;;;;2.80;99.90;;;;;;5054353;28;19905;-80
2022/04/21 06:07:30;;;;;;;;;;;2.80;99.90;;;;;;5052940;28;19909;-80
2022/04/21 06:09:55;;;;;;;;;;;2.80;99.90;;;;;;5054227;28;20418;-80
2022/04/21 06:12:25;;;;;;;;;;;2.90;99.90;;;;;;5054142;28;19995;-80
2022/04/21 06:14:51;;;;;;;;;;;2.90;99.90;;;;;;5054287;28;19905;-80
2022/04/21 06:17:17;;;;;;;;;;;3.00;99.90;;;;;;5053995;28;19909;-80
2022/04/21 06:19:42;;;;;;;;;;;3.00;99.90;;;;;;5052952;28;19916;-80
2022/04/21 06:22:08;;;;;;;;;;;3.10;99.90;;;;;;5054346;28;19908;-80
2022/04/21 06:24:33;;;;;;;;;;;3.10;99.90;;;;;;5053985;28;19905;-80
2022/04/21 06:26:59;;;;;;;;;;;3.10;99.90;;;;;;5057082;28;19905;-80
2022/04/21 06:29:25;;;;;;;;;;;3.20;99.90;;;;;;5060819;28;19909;-80
2022/04/21 06:31:50;;;;;;;;;;;3.20;99.90;;;;;;5057964;28;19940;-80
2022/04/21 06:34:16;;;;;;;;;;;3.30;99.90;;;;;;5057059;28;19915;-80
2022/04/21 06:36:41;;;;;;;;;;;3.30;99.90;;;;;;5057595;28;19958;-80
2022/04/21 06:39:07;;;;;;;;;;;3.40;99.90;;;;;;5061831;28;19917;-80
2022/04/21 06:41:33;;;;;;;;;;;3.50;99.90;;;;;;5060891;28;19904;-80
2022/04/21 06:49:27;;;;;;;;;;;3.80;99.90;;;;;;5062486;28;19911;-80
2022/04/21 06:51:53;;;;;;;;;;;4.00;99.90;;;;;;5061756;28;19905;-80
2022/04/21 06:54:18;;;;;;;;;;;4.10;99.90;;;;;;5063422;28;19905;-80
2022/04/21 06:56:48;;;;;;;;;;;4.10;99.90;;;;;;5063314;28;19905;-80
2022/04/21 06:59:17;;;;;;;;;;;4.30;99.90;;;;;;5063654;28;19911;-80
2022/04/21 07:01:43;;;;;;;;;;;4.40;99.90;;;;;;5064282;28;19909;-80
2022/04/21 07:04:08;;;;;;;;;;;4.60;99.90;;;;;;5060409;28;19905;-80
2022/04/21 07:06:34;;;;;;;;;;;4.70;99.90;;;;;;5059349;28;19909;-80
2022/04/21 07:08:59;;;;;;;;;;;4.90;99.90;;;;;;5060017;28;19905;-80
2022/04/21 07:11:26;;;;;;;;;;;5.00;99.90;;;;;;5061534;28;20276;-80
2022/04/21 07:13:52;;;;;;;;;;;5.20;99.90;;;;;;5060607;28;19954;-80
2022/04/21 07:16:17;;;;;;;;;;;5.30;99.90;;;;;;5060503;28;19908;-80
2022/04/21 07:18:43;;;;;;;;;;;5.40;99.90;;;;;;5064504;28;19935;-80
2022/04/21 07:21:09;;;;;;;;;;;5.60;99.90;;;;;;5060068;28;19970;-80
2022/04/21 07:23:36;;;;;;;;;;;5.70;99.90;;;;;;5062252;28;19909;-80
2022/04/21 07:26:01;;;;;;;;;;;5.90;99.90;;;;;;5061246;28;19930;-80
2022/04/21 07:28:27;;;;;;;;;;;6.00;99.90;;;;;;5065279;28;19987;-79
2022/04/21 07:30:53;;;;;;;;;;;6.10;99.90;;;;;;5060038;28;19904;-80
2022/04/21 07:33:18;;;;;;;;;;;6.20;99.90;;;;;;5060566;28;19905;-80
2022/04/21 07:35:44;;;;;;;;;;;6.30;99.90;;;;;;5062824;28;19944;-80
2022/04/21 07:38:10;;;;;;;;;;;6.40;99.90;;;;;;5067502;28;19909;-79
2022/04/21 07:40:38;;;;;;;;;;;6.60;99.90;;;;;;5068420;28;19912;-80
2022/04/21 07:43:10;;;;;;;;;;;6.80;99.90;;;;;;5067095;28;19954;-80
2022/04/21 07:45:37;;;;;;;;;;;6.90;99.90;;;;;;5067528;28;19984;-80
2022/04/21 07:48:03;;;;;;;;;;;7.10;99.90;;;;;;5064042;28;19950;-79
2022/04/21 07:50:29;;;;;;;;;;;7.20;99.90;;;;;;5056855;28;19909;-79
2022/04/21 07:55:39;;;;;;;;;;;7.50;99.90;;;;;;5056447;28;20419;-79
2022/04/21 07:58:05;;;;;;;;;;;7.70;99.90;;;;;;5057480;28;19912;-79
2022/04/21 08:00:32;;;;;;;;;;;7.90;99.90;;;;;;5056750;28;19905;-79
2022/04/21 08:02:57;;;;;;;;;;;8.00;99.90;;;;;;5057425;28;24085;-79
2022/04/21 08:05:23;;;;;;;;;;;8.10;99.90;;;;;;5056096;28;19905;-79
2022/04/21 08:07:49;;;;;;;;;;;8.20;99.90;;;;;;5058599;28;20265;-79
2022/04/21 08:10:15;;;;;;;;;;;8.30;99.90;;;;;;5063105;28;25101;-79
2022/04/21 08:12:45;;;;;;;;;;;8.50;99.90;;;;;;5063933;28;19905;-80
2022/04/21 08:15:21;;;;;;;9.63;6.28;;;8.70;99.90;;;;;;5068292;28;20064;-80
2022/04/21 08:17:46;;;;;;;9.77;5.60;;;8.80;99.90;;;;;;5068156;28;20029;-80
2022/04/21 08:20:12;;;;;;;8.95;7.03;;;8.90;99.30;;;;;;5064896;28;20484;-80
2022/04/21 08:22:39;;;;;;;13.57;7.43;;;9.10;98.80;;;;;;5065490;28;20028;-80
2022/04/21 08:33:20;;;;;;;13.70;9.63;;;9.80;96.40;;;;;;5064766;28;20036;-80
2022/04/21 08:35:47;;;;;;;20.30;11.48;;;9.90;96.70;;;;;;5060278;28;20021;-80
2022/04/21 08:38:13;;;;;;;17.33;11.38;;;10.00;96.50;;;;;;5059699;28;20029;-80
2022/04/21 08:40:51;;;;;;;15.05;9.50;;;10.10;96.20;;;;;;5059861;28;20040;-80
2022/04/21 08:43:17;;;;;;;13.15;7.22;;;10.30;95.60;;;;;;5058761;28;20017;-79
2022/04/21 08:45:44;;;;;;;11.77;7.28;;;10.30;94.70;;;;;;5058802;28;20051;-79
2022/04/21 08:48:18;;;;;;;9.15;6.57;;;10.50;95.20;;;;;;5059747;28;20032;-80
2022/04/21 08:50:44;;;;;;;11.85;6.75;;;10.60;93.30;;;;;;5058873;28;20540;-80
2022/04/21 08:53:13;;;;;;;12.30;7.65;;;10.70;93.00;;;;;;5063018;28;20401;-80
2022/04/21 08:55:39;;;;;;;9.32;6.13;;;10.90;93.10;;;;;;5068233;28;20021;-80
2022/04/21 08:58:05;;;;;;;8.75;5.13;;;11.10;92.80;;;;;;5069476;28;20029;-80
2022/04/21 09:00:31;;;;;;;7.28;5.07;;;11.20;90.70;;;;;;5069466;28;20045;-80
2022/04/21 09:02:58;;;;;;;7.80;4.85;;;11.30;89.60;;;;;;5070006;28;20025;-79
2022/04/21 09:05:28;;;;;;;9.45;4.60;;;11.40;89.50;;;;;;5070559;28;20024;-79
2022/04/21 09:07:54;;;;;;;10.57;4.60;;;11.60;86.20;;;;;;5069516;28;20075;-80
2022/04/21 09:10:20;;;;;;;9.82;5.10;;;11.70;88.40;;;;;;5069549;28;20077;-80
2022/04/21 09:12:48;;;;;;;8.50;4.70;;;11.90;88.20;;;;;;5069560;28;20021;-80
2022/04/21 09:15:16;;;;;;;6.85;3.88;;;12.10;89.00;;;;;;5070065;28;20028;-80
2022/04/21 09:17:43;;;;;;;6.53;4.38;;;12.20;82.40;;;;;;5070896;28;20104;-80
2022/04/21 09:20:10;;;;;;;8.07;4.32;;;12.40;79.40;;;;;;5065528;28;20053;-80
2022/04/21 09:22:40;;;;;;;7.93;3.88;;;12.40;81.70;;;;;;5068709;28;20020;-80
2022/04/21 09:25:06;;;;;;;4.75;3.55;;;12.60;78.10;;;;;;5068581;28;20390;-80
2022/04/21 09:27:40;;;;;;;7.38;3.72;;;12.70;78.40;;;;;;5067819;28;20031;-80
2022/04/21 09:30:10;;;;;;;5.30;3.80;;;12.90;80.70;;;;;;5065504;28;20025;-80
2022/04/21 09:32:38;;;;;;;5.50;3.60;;;13.00;80.50;;;;;;5066783;28;20043;-80
2022/04/21 09:35:06;;;;;;;5.95;3.25;;;13.10;77.10;;;;;;5066284;28;20032;-80
2022/04/21 09:37:31;;;;;;;5.97;4.30;;;13.30;78.10;;;;;;5066164;28;20029;-80
2022/04/21 09:39:57;;;;;;;8.38;4.40;;;13.30;75.00;;;;;;5064854;28;20035;-80
2022/04/21 09:42:27;;;;;;;6.07;4.00;;;13.40;77.40;;;;;;5067106;28;20048;-80
2022/04/21 09:47:51;;;;;;;5.38;3.85;;;13.60;73.90;;;;;;5064992;28;20078;-79
2022/04/21 09:50:17;;;;;;;6.28;3.90;;;13.70;76.00;;;;;;5064731;28;20049;-80
2022/04/21 09:52:51;;;;;;;5.80;4.30;;;13.80;73.90;;;;;;5063925;28;20089;-80
2022/04/21 09:55:26;;;;;;;5.88;3.85;;;13.80;71.70;;;;;;5064362;28;20025;-80
2022/04/21 09:58:08;;;;;;;6.25;3.97;;;13.90;72.60;;;;;;5063735;28;20029;-80
2022/04/21 10:00:36;;;;;;;7.57;3.88;;;14.00;74.70;;;;;;5065392;28;20029;-80
2022/04/21 10:03:03;;;;;;;6.05;4.05;;;14.20;72.80;;;;;;5067929;28;20021;-79
2022/04/21 10:05:34;;;;;;;7.60;3.65;;;14.40;72.10;;;;;;5067627;28;20017;-80
2022/04/21 10:08:02;;;;;;;4.80;3.42;;;14.60;72.40;;;;;;5071812;28;20489;-80
2022/04/21 10:10:32;;;;;;;6.53;3.85;;;14.70;71.40;;;;;;5070528;28;20091;-80
2022/04/21 10:13:02;;;;;;;6.22;3.97;;;14.80;72.20;;;;;;5070125;28;20024;-80
2022/04/21 10:15:29;;;;;;;4.50;3.33;;;14.90;68.00;;;;;;5070170;28;20028;-80
2022/04/21 10:17:55;;;;;;;3.70;2.97;;;14.90;67.60;;;;;;5069763;28;20029;-79
2022/04/21 10:20:25;;;;;;;4.78;3.05;;;14.90;68.90;;;;;;5068755;28;20040;-80
2022/04/21 10:22:53;;;;;;;4.68;3.38;;;15.00;66.80;;;;;;5068340;28;20045;-80
2022/04/21 10:25:19;;;;;;;4.95;3.30;;;15.10;66.80;;;;;;5068538;28;20028;-79
2022/04/21 10:27:47;;;;;;;16.73;8.52;;;15.20;67.60;;;;;;5069995;28;20088;-80
2022/04/21 10:30:30;;;;;;;5.13;3.40;;;15.20;65.50;;;;;;5067092;28;20055;-79
2022/04/21 10:32:58;;;;;;;5.60;3.33;;;15.30;65.90;;;;;;5065969;28;20029;-80
2022/04/21 10:35:23;;;;;;;4.63;3.28;;;15.40;63.60;;;;;;5068286;28;20017;-80
2022/04/21 10:38:23;;;;;;;4.75;2.97;;;15.40;61.80;;;;;;5069755;28;20080;-79
2022/04/21 10:41:10;;;;;;;6.05;3.03;;;15.50;64.60;;;;;;5047045;28;20109;-79
2022/04/21 10:43:48;;;;;;;4.93;3.22;;;15.60;62.40;;;;;;5070233;28;20041;-79
2022/04/21 10:46:29;;;;;;;5.05;3.42;;;15.60;61.70;;;;;;5067712;28;20017;-79
2022/04/21 10:48:55;;;;;;;4.85;3.03;;;15.70;60.20;;;;;;5069019;28;20036;-80
2022/04/21 10:51:40;;;;;;;5.47;3.00;;;15.70;59.80;;;;;;5066500;28;20446;-79
2022/04/21 11:00:08;;;;;;;4.40;2.95;;;16.00;59.30;;;;;;5066747;28;20036;-79
2022/04/21 11:02:41;;;;;;;4.72;3.20;;;16.10;58.20;;;;;;5069590;28;20076;-79
2022/04/21 11:05:22;;;;;;;4.15;2.72;;;16.00;58.70;;;;;;5065377;28;20088;-79
2022/04/21 11:07:53;;;;;;;4.07;3.10;;;16.00;57.90;;;;;;5067011;28;20025;-79
2022/04/21 11:10:26;;;;;;;4.45;2.85;;;16.10;61.10;;;;;;5068123;28;20029;-79
2022/04/21 11:12:52;;;;;;;5.18;3.08;;;16.30;60.20;;;;;;5065945;28;20069;-79
2022/04/21 11:15:46;;;;;;;5.95;2.95;;;16.30;58.20;;;;;;5067583;28;20056;-79
2022/04/21 11:18:19;;;;;;;4.50;2.50;;;16.40;56.30;;;;;;5070684;28;20017;-79
2022/04/21 11:20:47;;;;;;;4.22;3.00;;;16.40;56.80;;;;;;5067037;28;20035;-78
2022/04/21 11:23:29;;;;;;;4.97;3.20;;;16.50;56.40;;;;;;5068412;28;20477;-79
2022/04/21 11:26:06;;;;;;;4.68;2.78;;;16.50;56.50;;;;;;5066949;28;20029;-79
2022/04/21 11:28:32;;;;;;;5.63;3.33;;;16.50;58.40;;;;;;5064390;28;20104;-79
2022/04/21 11:30:59;;;;;;;5.30;2.83;;;16.60;54.60;;;;;;5064141;28;20028;-79
2022/04/21 11:33:25;;;;;;;4.05;2.70;;;16.70;56.50;;;;;;5065096;28;20021;-79
2022/04/21 11:36:08;;;;;;;4.25;2.78;;;16.60;54.40;;;;;;5064348;28;20086;-79
2022/04/21 11:38:35;;;;;;;4.72;2.90;;;16.40;55.50;;;;;;5064167;28;20108;-79
2022/04/21 11:41:05;;;;;;;6.47;3.00;;;16.40;56.10;;;;;;5063448;28;20029;-79
2022/04/21 11:43:31;;;;;;;5.20;3.07;;;16.50;57.90;;;;;;5067156;28;20084;-79
2022/04/21 11:45:59;;;;;;;5.40;2.90;;;16.60;55.40;;;;;;5066698;28;20389;-79
2022/04/21 11:48:42;;;;;;;4.32;2.63;;;16.50;55.00;;;;;;5066372;28;20465;-79
2022/04/21 11:51:24;;;;;;;4.88;3.17;;;16.60;56.70;;;;;;5062559;28;20033;-79
2022/04/21 11:53:50;;;;;;;5.25;3.25;;;16.80;57.90;;;;;;5058575;28;20039;-79
2022/04/21 11:56:16;;;;;;;5.20;3.13;;;16.90;56.00;;;;;;5058983;28;20036;-79
2022/04/21 11:58:42;;;;;;;5.00;2.92;;;17.00;55.50;;;;;;5057632;28;20021;-79
2022/04/21 12:06:57;;;;;;;5.82;3.17;;;16.60;54.50;;;;;;5059452;28;20201;-79
2022/04/21 12:09:34;;;;;;;4.57;3.28;;;16.50;55.00;;;;;;5057888;28;20508;-79
2022/04/21 12:12:02;;;;;;;7.07;3.25;;;16.40;54.20;;;;;;5058121;28;20038;-79
2022/04/21 12:14:29;;;;;;;5.60;3.20;;;16.50;56.80;;;;;;5058100;28;20029;-79
2022/04/21 12:17:06;;;;;;;5.32;3.60;;;16.60;56.50;;;;;;5056590;28;20466;-79
2022/04/21 12:19:38;;;;;;;5.43;3.28;;;16.60;56.70;;;;;;5058117;28;20111;-79
2022/04/21 12:22:07;;;;;;;;;;;16.60;56.50;;;;;;5058394;28;20021;-79
2022/04/21 12:24:42;;;;;;;6.07;3.45;;;16.60;55.80;;;;;;5055522;28;19911;-78
2022/04/21 12:27:29;;;;;;;6.38;3.08;;;16.80;56.50;;;;;;5057749;28;20032;-79
2022/04/21 12:29:59;;;;;;;7.00;3.65;;;16.70;54.80;;;;;;5058416;28;20430;-78
2022/04/21 12:32:29;;;;;;;4.87;3.17;;;16.70;56.20;;;;;;5058605;28;20027;-79
2022/04/21 12:34:57;;;;;;;5.13;3.40;;;16.70;56.20;;;;;;5057055;28;20036;-79
2022/04/21 12:37:30;;;;;;;5.72;3.90;;;16.90;57.60;;;;;;5057021;28;20033;-79
2022/04/21 12:39:58;;;;;;;4.78;3.35;;;17.00;55.20;;;;;;5057197;28;20028;-78
2022/04/21 12:42:24;;;;;;;5.63;3.17;;;16.80;55.00;;;;;;5056327;28;20475;-79
2022/04/21 12:44:51;;;;;;;7.68;3.58;;;16.80;55.60;;;;;;5054545;28;20096;-79
2022/04/21 12:47:18;;;;;;;7.13;3.60;;;17.00;54.50;;;;;;5054597;28;20109;-79
2022/04/21 12:50:09;;;;;;;4.70;3.08;;;17.10;55.90;;;;;;5054382;28;20021;-79
2022/04/21 12:52:42;;;;;;;5.47;3.42;;;17.20;54.00;;;;;;5038034;28;20434;-79
2022/04/21 12:55:28;;;;;;;4.53;3.35;;;17.30;57.80;;;;;;5051829;28;20433;-80
2022/04/21 12:58:05;;;;;;;6.93;4.00;;;17.50;57.30;;;;;;5046793;28;20078;-82
2022/04/21 13:00:33;;;;;;;5.82;4.03;;;17.50;52.60;;;;;;5060139;28;20021;-83
2022/04/21 13:03:01;;;;;;;5.38;3.35;;;17.40;52.90;;;;;;5061722;28;20043;-83
2022/04/21 13:05:27;;;;;;;5.32;3.10;;;17.30;53.40;;;;;;5053829;28;20025;-83
2022/04/21 13:07:53;;;;;;;5.38;3.35;;;17.00;54.60;;;;;;5062672;28;20102;-83
2022/04/21 13:10:21;;;;;;;5.85;3.40;;;17.20;55.70;;;;;;5055798;28;20032;-83
2022/04/21 13:12:47;;;;;;;4.82;3.50;;;17.30;53.10;;;;;;5052894;28;20496;-82
2022/04/21 13:15:13;;;;;;;4.90;3.30;;;17.30;54.20;;;;;;5043834;28;20033;-82
2022/04/21 13:17:42;;;;;;;8.45;3.70;;;17.20;52.60;;;;;;5043844;28;20119;-82
2022/04/21 13:20:09;;;;;;;5.53;3.33;;;17.10;53.10;;;;;;5053422;28;20370;-82
2022/04/21 13:22:35;;;;;;;5.18;3.25;;;17.10;54.20;;;;;;5053543;28;20100;-83
2022/04/21 13:25:01;;;;;;;4.70;3.08;;;17.20;54.90;;;;;;5052642;28;20055;-83
2022/04/21 13:27:29;;;;;;;4.63;3.08;;;17.20;53.80;;;;;;5047956;28;20029;-82
2022/04/21 13:29:54;;;;;;;6.03;3.45;;;17.30;54.30;;;;;;5053290;28;20029;-80
2022/04/21 13:35:05;;;;;;;6.30;3.28;;;17.10;54.80;;;;;;5046113;28;20079;-82
2022/04/21 13:37:31;;;;;;;5.25;3.20;;;17.10;54.60;;;;;;5033289;28;20072;-82
2022/04/21 13:39:56;;;;;;;5.30;3.50;;;17.10;53.90;;;;;;5032147;28;20033;-82
2022/04/21 13:42:22;;;;;;;6.72;3.72;;;17.20;53.70;;;;;;5033857;28;20120;-82
2022/04/21 13:44:48;;;;;;;5.00;3.15;;;17.10;54.20;;;;;;5032936;28;20025;-82
2022/04/21 13:47:14;;;;;;;5.45;3.60;;;17.00;53.30;;;;;;5034714;28;20447;-82
2022/04/21 13:49:43;;;;;;;5.20;3.75;;;16.90;54.80;;;;;;5034006;28;20052;-82
2022/04/21 13:52:11;;;;;;;5.57;4.18;;;16.70;54.90;;;;;;5032201;28;20056;-82
2022/04/21 13:54:38;;;;;;;8.50;3.85;;;16.70;55.00;;;;;;5033114;28;20030;-82
2022/04/21 13:57:04;;;;;;;8.20;3.95;;;16.70;53.20;;;;;;5032119;28;20041;-83
2022/04/21 13:59:31;;;;;;;6.55;4.07;;;16.70;54.50;;;;;;5033938;28;20026;-83
2022/04/21 14:01:57;;;;;;;7.13;3.50;;;16.70;53.60;;;;;;5039667;28;20021;-82
2022/04/21 14:04:22;;;;;;;5.25;3.65;;;16.70;53.80;;;;;;5053041;28;20103;-83
2022/04/21 14:06:49;;;;;;;5.57;3.78;;;16.70;53.40;;;;;;5052109;28;20022;-83
2022/04/21 14:09:15;;;;;;;7.32;3.65;;;16.70;54.10;;;;;;5052019;28;20025;-83
2022/04/21 14:11:41;;;;;;;5.63;3.67;;;16.60;54.40;;;;;;5053424;28;20056;-83